sensor_id;sensor_type;location;lat;lon;timestamp;P1;durP1;ratioP1;P2;durP2;ratioP2
68168;SDS011;54981;50.206;15.978;2023-08-06T00:01:28;7.97;;;7.18;;
68168;SDS011;54981;50.206;15.978;2023-08-06T00:03:58;7.82;;;7.03;;
68168;SDS011;54981;50.206;15.978;2023-08-06T00:06:30;8.73;;;7.82;;
68168;SDS011;54981;50.206;15.978;2023-08-06T00:09:00;8.60;;;7.90;;
68168;SDS011;54981;50.206;15.978;2023-08-06T00:11:30;9.88;;;7.20;;
68168;SDS011;54981;50.206;15.978;2023-08-06T00:14:01;8.88;;;7.25;;
68168;SDS011;54981;50.206;15.978;2023-08-06T00:16:31;7.47;;;6.88;;
68168;SDS011;54981;50.206;15.978;2023-08-06T00:19:02;8.13;;;7.35;;
68168;SDS011;54981;50.206;15.978;2023-08-06T00:21:32;8.23;;;7.18;;
68168;SDS011;54981;50.206;15.978;2023-08-06T00:24:02;7.50;;;6.90;;
68168;SDS011;54981;50.206;15.978;2023-08-06T00:26:33;7.57;;;6.88;;
68168;SDS011;54981;50.206;15.978;2023-08-06T00:29:03;8.35;;;7.53;;
68168;SDS011;54981;50.206;15.978;2023-08-06T00:31:34;7.50;;;6.80;;
68168;SDS011;54981;50.206;15.978;2023-08-06T00:34:04;7.45;;;6.72;;
68168;SDS011;54981;50.206;15.978;2023-08-06T00:36:34;7.43;;;6.72;;
68168;SDS011;54981;50.206;15.978;2023-08-06T00:39:04;6.88;;;6.30;;
68168;SDS011;54981;50.206;15.978;2023-08-06T00:41:37;6.82;;;6.20;;
68168;SDS011;54981;50.206;15.978;2023-08-06T00:44:07;7.10;;;6.38;;
68168;SDS011;54981;50.206;15.978;2023-08-06T00:46:37;8.57;;;6.68;;
68168;SDS011;54981;50.206;15.978;2023-08-06T00:49:08;6.45;;;5.75;;
68168;SDS011;54981;50.206;15.978;2023-08-06T00:51:39;7.35;;;6.32;;
68168;SDS011;54981;50.206;15.978;2023-08-06T00:54:09;6.32;;;5.80;;
68168;SDS011;54981;50.206;15.978;2023-08-06T00:56:40;6.65;;;6.00;;
68168;SDS011;54981;50.206;15.978;2023-08-06T00:59:12;6.43;;;5.82;;
68168;SDS011;54981;50.206;15.978;2023-08-06T01:01:43;7.63;;;6.93;;
68168;SDS011;54981;50.206;15.978;2023-08-06T01:04:14;6.30;;;5.80;;
68168;SDS011;54981;50.206;15.978;2023-08-06T01:09:30;5.55;;;5.05;;
68168;SDS011;54981;50.206;15.978;2023-08-06T01:15:11;5.90;;;5.38;;
68168;SDS011;54981;50.206;15.978;2023-08-06T01:17:48;5.43;;;4.93;;
68168;SDS011;54981;50.206;15.978;2023-08-06T01:20:18;5.63;;;5.13;;
68168;SDS011;54981;50.206;15.978;2023-08-06T01:22:49;5.55;;;5.15;;
68168;SDS011;54981;50.206;15.978;2023-08-06T01:25:19;5.25;;;4.85;;
68168;SDS011;54981;50.206;15.978;2023-08-06T01:27:49;4.63;;;4.32;;
68168;SDS011;54981;50.206;15.978;2023-08-06T01:30:25;5.27;;;4.87;;
68168;SDS011;54981;50.206;15.978;2023-08-06T01:32:58;6.30;;;5.70;;
68168;SDS011;54981;50.206;15.978;2023-08-06T01:35:33;5.50;;;5.15;;
68168;SDS011;54981;50.206;15.978;2023-08-06T01:38:06;5.65;;;5.25;;
68168;SDS011;54981;50.206;15.978;2023-08-06T01:40:37;4.97;;;4.57;;
68168;SDS011;54981;50.206;15.978;2023-08-06T01:43:07;5.75;;;5.35;;
68168;SDS011;54981;50.206;15.978;2023-08-06T01:45:37;6.05;;;5.57;;
68168;SDS011;54981;50.206;15.978;2023-08-06T01:48:08;5.28;;;4.78;;
68168;SDS011;54981;50.206;15.978;2023-08-06T01:50:38;5.40;;;4.90;;
68168;SDS011;54981;50.206;15.978;2023-08-06T01:53:09;5.65;;;5.15;;
68168;SDS011;54981;50.206;15.978;2023-08-06T01:55:39;5.32;;;4.88;;
68168;SDS011;54981;50.206;15.978;2023-08-06T01:58:09;6.00;;;5.60;;
68168;SDS011;54981;50.206;15.978;2023-08-06T02:00:40;5.25;;;4.85;;
68168;SDS011;54981;50.206;15.978;2023-08-06T02:03:11;4.97;;;4.57;;
68168;SDS011;54981;50.206;15.978;2023-08-06T02:05:41;5.28;;;4.88;;
68168;SDS011;54981;50.206;15.978;2023-08-06T02:08:11;5.78;;;5.22;;
68168;SDS011;54981;50.206;15.978;2023-08-06T02:10:42;5.28;;;4.80;;
68168;SDS011;54981;50.206;15.978;2023-08-06T02:13:12;5.60;;;5.13;;
68168;SDS011;54981;50.206;15.978;2023-08-06T02:15:43;6.50;;;5.78;;
68168;SDS011;54981;50.206;15.978;2023-08-06T02:18:14;5.68;;;5.28;;
68168;SDS011;54981;50.206;15.978;2023-08-06T02:20:54;6.43;;;6.03;;
68168;SDS011;54981;50.206;15.978;2023-08-06T02:23:28;6.43;;;5.80;;
68168;SDS011;54981;50.206;15.978;2023-08-06T02:26:00;6.43;;;5.82;;
68168;SDS011;54981;50.206;15.978;2023-08-06T02:28:31;6.43;;;5.93;;
68168;SDS011;54981;50.206;15.978;2023-08-06T02:31:02;6.82;;;6.22;;
68168;SDS011;54981;50.206;15.978;2023-08-06T02:33:32;6.50;;;6.00;;
68168;SDS011;54981;50.206;15.978;2023-08-06T02:36:03;7.03;;;6.47;;
68168;SDS011;54981;50.206;15.978;2023-08-06T02:38:34;6.55;;;6.03;;
68168;SDS011;54981;50.206;15.978;2023-08-06T02:41:04;7.18;;;6.68;;
68168;SDS011;54981;50.206;15.978;2023-08-06T02:43:35;6.90;;;6.40;;
68168;SDS011;54981;50.206;15.978;2023-08-06T02:46:05;6.93;;;6.40;;
68168;SDS011;54981;50.206;15.978;2023-08-06T02:48:35;6.80;;;6.25;;
68168;SDS011;54981;50.206;15.978;2023-08-06T02:51:06;7.68;;;7.00;;
68168;SDS011;54981;50.206;15.978;2023-08-06T02:53:36;6.65;;;6.05;;
68168;SDS011;54981;50.206;15.978;2023-08-06T02:56:06;7.82;;;7.13;;
68168;SDS011;54981;50.206;15.978;2023-08-06T02:58:37;6.63;;;6.13;;
68168;SDS011;54981;50.206;15.978;2023-08-06T03:01:07;6.88;;;6.38;;
68168;SDS011;54981;50.206;15.978;2023-08-06T03:03:38;6.38;;;5.88;;
68168;SDS011;54981;50.206;15.978;2023-08-06T03:06:08;6.32;;;5.82;;
68168;SDS011;54981;50.206;15.978;2023-08-06T03:08:38;6.55;;;6.05;;
68168;SDS011;54981;50.206;15.978;2023-08-06T03:11:09;6.70;;;6.20;;
68168;SDS011;54981;50.206;15.978;2023-08-06T03:13:39;7.50;;;6.30;;
68168;SDS011;54981;50.206;15.978;2023-08-06T03:16:09;6.82;;;6.18;;
68168;SDS011;54981;50.206;15.978;2023-08-06T03:18:40;6.68;;;6.18;;
68168;SDS011;54981;50.206;15.978;2023-08-06T03:21:10;6.95;;;6.45;;
68168;SDS011;54981;50.206;15.978;2023-08-06T03:23:40;7.07;;;6.47;;
68168;SDS011;54981;50.206;15.978;2023-08-06T03:26:11;7.53;;;6.82;;
68168;SDS011;54981;50.206;15.978;2023-08-06T03:28:41;6.68;;;6.07;;
68168;SDS011;54981;50.206;15.978;2023-08-06T03:31:12;6.25;;;5.75;;
68168;SDS011;54981;50.206;15.978;2023-08-06T03:33:42;6.55;;;5.97;;
68168;SDS011;54981;50.206;15.978;2023-08-06T03:36:12;6.20;;;5.75;;
68168;SDS011;54981;50.206;15.978;2023-08-06T03:38:43;6.22;;;5.82;;
68168;SDS011;54981;50.206;15.978;2023-08-06T03:41:13;6.50;;;6.00;;
68168;SDS011;54981;50.206;15.978;2023-08-06T03:43:43;5.93;;;5.53;;
68168;SDS011;54981;50.206;15.978;2023-08-06T03:46:14;6.20;;;5.53;;
68168;SDS011;54981;50.206;15.978;2023-08-06T03:48:44;6.15;;;5.55;;
68168;SDS011;54981;50.206;15.978;2023-08-06T03:51:14;5.85;;;5.35;;
68168;SDS011;54981;50.206;15.978;2023-08-06T03:53:45;5.60;;;5.15;;
68168;SDS011;54981;50.206;15.978;2023-08-06T03:56:15;4.85;;;4.55;;
68168;SDS011;54981;50.206;15.978;2023-08-06T03:58:45;5.13;;;4.75;;
68168;SDS011;54981;50.206;15.978;2023-08-06T04:01:16;5.28;;;4.93;;
68168;SDS011;54981;50.206;15.978;2023-08-06T04:03:46;5.63;;;5.22;;
68168;SDS011;54981;50.206;15.978;2023-08-06T04:06:17;5.10;;;4.70;;
68168;SDS011;54981;50.206;15.978;2023-08-06T04:08:47;5.00;;;4.60;;
68168;SDS011;54981;50.206;15.978;2023-08-06T04:11:17;4.70;;;4.32;;
68168;SDS011;54981;50.206;15.978;2023-08-06T04:13:48;4.28;;;3.97;;
68168;SDS011;54981;50.206;15.978;2023-08-06T04:16:18;4.68;;;4.38;;
68168;SDS011;54981;50.206;15.978;2023-08-06T04:18:48;4.95;;;4.65;;
68168;SDS011;54981;50.206;15.978;2023-08-06T04:21:19;4.22;;;3.92;;
68168;SDS011;54981;50.206;15.978;2023-08-06T04:23:49;4.80;;;4.38;;
68168;SDS011;54981;50.206;15.978;2023-08-06T04:26:20;4.10;;;3.80;;
68168;SDS011;54981;50.206;15.978;2023-08-06T04:28:50;4.57;;;4.28;;
68168;SDS011;54981;50.206;15.978;2023-08-06T04:31:21;4.68;;;4.38;;
68168;SDS011;54981;50.206;15.978;2023-08-06T04:33:53;4.35;;;4.00;;
68168;SDS011;54981;50.206;15.978;2023-08-06T04:36:23;4.30;;;4.00;;
68168;SDS011;54981;50.206;15.978;2023-08-06T04:38:53;4.78;;;4.38;;
68168;SDS011;54981;50.206;15.978;2023-08-06T04:41:24;4.38;;;4.18;;
68168;SDS011;54981;50.206;15.978;2023-08-06T04:43:56;3.33;;;3.05;;
68168;SDS011;54981;50.206;15.978;2023-08-06T04:46:27;4.22;;;3.92;;
68168;SDS011;54981;50.206;15.978;2023-08-06T04:48:57;4.82;;;4.38;;
68168;SDS011;54981;50.206;15.978;2023-08-06T04:51:27;4.55;;;4.25;;
68168;SDS011;54981;50.206;15.978;2023-08-06T04:53:58;4.30;;;4.00;;
68168;SDS011;54981;50.206;15.978;2023-08-06T04:56:28;5.45;;;5.05;;
68168;SDS011;54981;50.206;15.978;2023-08-06T04:58:59;4.65;;;4.35;;
68168;SDS011;54981;50.206;15.978;2023-08-06T05:01:29;4.47;;;4.07;;
68168;SDS011;54981;50.206;15.978;2023-08-06T05:04:00;3.97;;;3.67;;
68168;SDS011;54981;50.206;15.978;2023-08-06T05:06:30;4.35;;;4.05;;
68168;SDS011;54981;50.206;15.978;2023-08-06T05:09:00;4.57;;;4.28;;
68168;SDS011;54981;50.206;15.978;2023-08-06T05:11:31;4.25;;;3.95;;
68168;SDS011;54981;50.206;15.978;2023-08-06T05:14:01;4.50;;;4.15;;
68168;SDS011;54981;50.206;15.978;2023-08-06T05:16:31;4.72;;;4.43;;
68168;SDS011;54981;50.206;15.978;2023-08-06T05:19:02;4.68;;;4.30;;
68168;SDS011;54981;50.206;15.978;2023-08-06T05:21:32;4.03;;;3.83;;
68168;SDS011;54981;50.206;15.978;2023-08-06T05:24:02;4.15;;;3.85;;
68168;SDS011;54981;50.206;15.978;2023-08-06T05:26:33;3.67;;;3.38;;
68168;SDS011;54981;50.206;15.978;2023-08-06T05:29:03;3.75;;;3.55;;
68168;SDS011;54981;50.206;15.978;2023-08-06T05:31:34;4.15;;;3.83;;
68168;SDS011;54981;50.206;15.978;2023-08-06T05:34:04;3.60;;;3.30;;
68168;SDS011;54981;50.206;15.978;2023-08-06T05:36:34;3.72;;;3.53;;
68168;SDS011;54981;50.206;15.978;2023-08-06T05:39:05;3.78;;;3.47;;
68168;SDS011;54981;50.206;15.978;2023-08-06T05:41:35;3.90;;;3.70;;
68168;SDS011;54981;50.206;15.978;2023-08-06T05:44:05;3.85;;;3.65;;
68168;SDS011;54981;50.206;15.978;2023-08-06T05:46:36;3.22;;;3.03;;
68168;SDS011;54981;50.206;15.978;2023-08-06T05:49:06;3.95;;;3.65;;
68168;SDS011;54981;50.206;15.978;2023-08-06T05:51:37;3.88;;;3.58;;
68168;SDS011;54981;50.206;15.978;2023-08-06T05:54:07;3.88;;;3.60;;
68168;SDS011;54981;50.206;15.978;2023-08-06T05:56:37;4.00;;;3.60;;
68168;SDS011;54981;50.206;15.978;2023-08-06T05:59:08;3.53;;;3.33;;
68168;SDS011;54981;50.206;15.978;2023-08-06T06:01:38;4.43;;;4.10;;
68168;SDS011;54981;50.206;15.978;2023-08-06T06:04:08;4.32;;;4.13;;
68168;SDS011;54981;50.206;15.978;2023-08-06T06:06:39;4.55;;;4.15;;
68168;SDS011;54981;50.206;15.978;2023-08-06T06:09:11;4.13;;;3.92;;
68168;SDS011;54981;50.206;15.978;2023-08-06T06:11:41;4.20;;;3.83;;
68168;SDS011;54981;50.206;15.978;2023-08-06T06:14:12;4.28;;;3.88;;
68168;SDS011;54981;50.206;15.978;2023-08-06T06:16:42;3.75;;;3.45;;
68168;SDS011;54981;50.206;15.978;2023-08-06T06:19:13;3.95;;;3.63;;
68168;SDS011;54981;50.206;15.978;2023-08-06T06:21:43;3.45;;;3.25;;
68168;SDS011;54981;50.206;15.978;2023-08-06T06:24:13;3.60;;;3.40;;
68168;SDS011;54981;50.206;15.978;2023-08-06T06:26:44;4.07;;;3.88;;
68168;SDS011;54981;50.206;15.978;2023-08-06T06:29:14;4.25;;;4.05;;
68168;SDS011;54981;50.206;15.978;2023-08-06T06:31:44;4.00;;;3.80;;
68168;SDS011;54981;50.206;15.978;2023-08-06T06:34:15;4.00;;;3.70;;
68168;SDS011;54981;50.206;15.978;2023-08-06T06:36:45;3.78;;;3.47;;
68168;SDS011;54981;50.206;15.978;2023-08-06T06:39:17;3.53;;;3.33;;
68168;SDS011;54981;50.206;15.978;2023-08-06T06:41:47;4.55;;;4.25;;
68168;SDS011;54981;50.206;15.978;2023-08-06T06:44:18;3.88;;;3.67;;
68168;SDS011;54981;50.206;15.978;2023-08-06T06:46:50;4.47;;;4.18;;
68168;SDS011;54981;50.206;15.978;2023-08-06T06:49:20;4.47;;;4.18;;
68168;SDS011;54981;50.206;15.978;2023-08-06T06:51:52;4.75;;;4.45;;
68168;SDS011;54981;50.206;15.978;2023-08-06T06:54:22;4.28;;;4.07;;
68168;SDS011;54981;50.206;15.978;2023-08-06T06:56:53;4.72;;;4.43;;
68168;SDS011;54981;50.206;15.978;2023-08-06T06:59:23;3.85;;;3.65;;
68168;SDS011;54981;50.206;15.978;2023-08-06T07:01:53;4.40;;;4.10;;
68168;SDS011;54981;50.206;15.978;2023-08-06T07:04:24;4.30;;;4.00;;
68168;SDS011;54981;50.206;15.978;2023-08-06T07:06:54;4.85;;;4.55;;
68168;SDS011;54981;50.206;15.978;2023-08-06T07:09:24;5.45;;;5.15;;
68168;SDS011;54981;50.206;15.978;2023-08-06T07:11:55;5.18;;;4.68;;
68168;SDS011;54981;50.206;15.978;2023-08-06T07:14:25;5.43;;;5.03;;
68168;SDS011;54981;50.206;15.978;2023-08-06T07:16:55;5.80;;;5.40;;
68168;SDS011;54981;50.206;15.978;2023-08-06T07:19:26;5.50;;;5.10;;
68168;SDS011;54981;50.206;15.978;2023-08-06T07:21:56;5.65;;;5.28;;
68168;SDS011;54981;50.206;15.978;2023-08-06T07:24:27;5.75;;;5.35;;
68168;SDS011;54981;50.206;15.978;2023-08-06T07:26:57;6.00;;;5.50;;
68168;SDS011;54981;50.206;15.978;2023-08-06T07:29:27;5.38;;;5.07;;
68168;SDS011;54981;50.206;15.978;2023-08-06T07:31:58;5.43;;;4.97;;
68168;SDS011;54981;50.206;15.978;2023-08-06T07:34:28;4.95;;;4.63;;
68168;SDS011;54981;50.206;15.978;2023-08-06T07:36:58;4.95;;;4.65;;
68168;SDS011;54981;50.206;15.978;2023-08-06T07:39:29;4.95;;;4.65;;
68168;SDS011;54981;50.206;15.978;2023-08-06T07:42:00;5.10;;;4.70;;
68168;SDS011;54981;50.206;15.978;2023-08-06T07:44:32;4.22;;;4.00;;
68168;SDS011;54981;50.206;15.978;2023-08-06T07:47:02;5.28;;;4.97;;
68168;SDS011;54981;50.206;15.978;2023-08-06T07:49:33;4.55;;;4.15;;
68168;SDS011;54981;50.206;15.978;2023-08-06T07:52:03;4.60;;;4.30;;
68168;SDS011;54981;50.206;15.978;2023-08-06T07:54:34;5.40;;;4.93;;
68168;SDS011;54981;50.206;15.978;2023-08-06T07:57:04;4.72;;;4.32;;
68168;SDS011;54981;50.206;15.978;2023-08-06T07:59:35;5.10;;;4.70;;
68168;SDS011;54981;50.206;15.978;2023-08-06T08:02:05;4.88;;;4.40;;
68168;SDS011;54981;50.206;15.978;2023-08-06T08:04:36;4.70;;;4.40;;
68168;SDS011;54981;50.206;15.978;2023-08-06T08:07:06;5.43;;;5.00;;
68168;SDS011;54981;50.206;15.978;2023-08-06T08:09:37;4.55;;;4.22;;
68168;SDS011;54981;50.206;15.978;2023-08-06T08:12:07;3.85;;;3.65;;
68168;SDS011;54981;50.206;15.978;2023-08-06T08:14:38;4.82;;;4.43;;
68168;SDS011;54981;50.206;15.978;2023-08-06T08:17:08;4.13;;;3.92;;
68168;SDS011;54981;50.206;15.978;2023-08-06T08:19:39;3.95;;;3.65;;
68168;SDS011;54981;50.206;15.978;2023-08-06T08:22:10;6.43;;;4.47;;
68168;SDS011;54981;50.206;15.978;2023-08-06T08:24:41;4.38;;;4.07;;
68168;SDS011;54981;50.206;15.978;2023-08-06T08:27:11;5.80;;;5.40;;
68168;SDS011;54981;50.206;15.978;2023-08-06T08:29:41;5.10;;;4.70;;
68168;SDS011;54981;50.206;15.978;2023-08-06T08:32:12;5.00;;;4.68;;
68168;SDS011;54981;50.206;15.978;2023-08-06T08:34:42;5.28;;;4.88;;
68168;SDS011;54981;50.206;15.978;2023-08-06T08:37:14;4.32;;;4.03;;
68168;SDS011;54981;50.206;15.978;2023-08-06T08:39:44;5.32;;;4.93;;
68168;SDS011;54981;50.206;15.978;2023-08-06T08:42:14;4.95;;;4.60;;
68168;SDS011;54981;50.206;15.978;2023-08-06T08:44:45;4.82;;;4.35;;
68168;SDS011;54981;50.206;15.978;2023-08-06T08:47:16;5.65;;;5.25;;
68168;SDS011;54981;50.206;15.978;2023-08-06T08:49:46;5.20;;;4.80;;
68168;SDS011;54981;50.206;15.978;2023-08-06T08:52:18;5.03;;;4.72;;
68168;SDS011;54981;50.206;15.978;2023-08-06T08:54:50;4.75;;;4.45;;
68168;SDS011;54981;50.206;15.978;2023-08-06T08:57:22;4.93;;;4.40;;
68168;SDS011;54981;50.206;15.978;2023-08-06T08:59:53;5.03;;;4.70;;
68168;SDS011;54981;50.206;15.978;2023-08-06T09:02:23;4.80;;;4.40;;
68168;SDS011;54981;50.206;15.978;2023-08-06T09:04:58;5.15;;;4.80;;
68168;SDS011;54981;50.206;15.978;2023-08-06T09:07:34;4.75;;;4.45;;
68168;SDS011;54981;50.206;15.978;2023-08-06T09:10:10;4.35;;;4.05;;
68168;SDS011;54981;50.206;15.978;2023-08-06T09:12:44;5.10;;;4.70;;
68168;SDS011;54981;50.206;15.978;2023-08-06T09:15:15;5.13;;;4.45;;
68168;SDS011;54981;50.206;15.978;2023-08-06T09:17:45;4.72;;;4.32;;
68168;SDS011;54981;50.206;15.978;2023-08-06T09:20:15;4.28;;;4.07;;
68168;SDS011;54981;50.206;15.978;2023-08-06T09:22:46;4.57;;;4.28;;
68168;SDS011;54981;50.206;15.978;2023-08-06T09:25:22;4.20;;;3.90;;
68168;SDS011;54981;50.206;15.978;2023-08-06T09:27:54;4.53;;;4.20;;
68168;SDS011;54981;50.206;15.978;2023-08-06T09:30:32;5.45;;;4.60;;
68168;SDS011;54981;50.206;15.978;2023-08-06T09:33:07;5.28;;;4.88;;
68168;SDS011;54981;50.206;15.978;2023-08-06T09:35:42;4.70;;;4.28;;
68168;SDS011;54981;50.206;15.978;2023-08-06T09:38:13;4.72;;;4.43;;
68168;SDS011;54981;50.206;15.978;2023-08-06T09:40:43;4.22;;;3.92;;
68168;SDS011;54981;50.206;15.978;2023-08-06T09:43:14;5.43;;;5.05;;
68168;SDS011;54981;50.206;15.978;2023-08-06T09:45:44;4.07;;;3.78;;
68168;SDS011;54981;50.206;15.978;2023-08-06T09:48:14;4.82;;;4.53;;
68168;SDS011;54981;50.206;15.978;2023-08-06T09:50:45;4.15;;;3.90;;
68168;SDS011;54981;50.206;15.978;2023-08-06T09:53:17;4.40;;;4.03;;
68168;SDS011;54981;50.206;15.978;2023-08-06T09:55:49;4.68;;;4.38;;
68168;SDS011;54981;50.206;15.978;2023-08-06T09:58:20;4.30;;;4.00;;
68168;SDS011;54981;50.206;15.978;2023-08-06T10:00:53;5.00;;;4.70;;
68168;SDS011;54981;50.206;15.978;2023-08-06T10:03:23;4.63;;;4.32;;
68168;SDS011;54981;50.206;15.978;2023-08-06T10:05:55;4.28;;;3.90;;
68168;SDS011;54981;50.206;15.978;2023-08-06T10:08:26;4.68;;;4.28;;
68168;SDS011;54981;50.206;15.978;2023-08-06T10:10:57;5.80;;;5.40;;
68168;SDS011;54981;50.206;15.978;2023-08-06T10:13:28;5.95;;;5.03;;
68168;SDS011;54981;50.206;15.978;2023-08-06T10:15:59;4.63;;;4.22;;
68168;SDS011;54981;50.206;15.978;2023-08-06T10:18:29;4.75;;;4.35;;
68168;SDS011;54981;50.206;15.978;2023-08-06T10:21:00;4.95;;;4.55;;
68168;SDS011;54981;50.206;15.978;2023-08-06T10:23:34;5.45;;;5.13;;
68168;SDS011;54981;50.206;15.978;2023-08-06T10:26:07;4.85;;;4.55;;
68168;SDS011;54981;50.206;15.978;2023-08-06T10:28:38;4.53;;;4.22;;
68168;SDS011;54981;50.206;15.978;2023-08-06T10:31:09;5.20;;;4.88;;
68168;SDS011;54981;50.206;15.978;2023-08-06T10:33:43;5.05;;;4.65;;
68168;SDS011;54981;50.206;15.978;2023-08-06T10:36:15;5.55;;;5.15;;
68168;SDS011;54981;50.206;15.978;2023-08-06T10:38:49;5.50;;;5.10;;
68168;SDS011;54981;50.206;15.978;2023-08-06T10:41:27;5.78;;;5.38;;
68168;SDS011;54981;50.206;15.978;2023-08-06T10:44:05;5.55;;;5.15;;
68168;SDS011;54981;50.206;15.978;2023-08-06T10:46:39;5.72;;;5.28;;
68168;SDS011;54981;50.206;15.978;2023-08-06T10:49:09;6.03;;;5.57;;
68168;SDS011;54981;50.206;15.978;2023-08-06T10:51:41;4.63;;;4.32;;
68168;SDS011;54981;50.206;15.978;2023-08-06T10:54:11;6.22;;;5.47;;
68168;SDS011;54981;50.206;15.978;2023-08-06T10:56:42;5.65;;;5.25;;
68168;SDS011;54981;50.206;15.978;2023-08-06T10:59:14;6.18;;;5.57;;
68168;SDS011;54981;50.206;15.978;2023-08-06T11:01:48;5.43;;;5.03;;
68168;SDS011;54981;50.206;15.978;2023-08-06T11:04:38;5.85;;;5.50;;
68168;SDS011;54981;50.206;15.978;2023-08-06T11:07:09;5.63;;;5.22;;
68168;SDS011;54981;50.206;15.978;2023-08-06T11:09:40;5.05;;;4.68;;
68168;SDS011;54981;50.206;15.978;2023-08-06T11:12:10;5.55;;;5.15;;
68168;SDS011;54981;50.206;15.978;2023-08-06T11:14:41;5.15;;;4.78;;
68168;SDS011;54981;50.206;15.978;2023-08-06T11:17:11;5.15;;;4.85;;
68168;SDS011;54981;50.206;15.978;2023-08-06T11:19:42;5.13;;;4.80;;
68168;SDS011;54981;50.206;15.978;2023-08-06T11:22:12;5.80;;;5.40;;
68168;SDS011;54981;50.206;15.978;2023-08-06T11:24:44;5.18;;;4.78;;
68168;SDS011;54981;50.206;15.978;2023-08-06T11:27:15;5.13;;;4.72;;
68168;SDS011;54981;50.206;15.978;2023-08-06T11:29:47;5.70;;;5.30;;
68168;SDS011;54981;50.206;15.978;2023-08-06T11:32:17;6.50;;;6.00;;
68168;SDS011;54981;50.206;15.978;2023-08-06T11:34:47;6.00;;;5.60;;
68168;SDS011;54981;50.206;15.978;2023-08-06T11:37:20;6.10;;;5.70;;
68168;SDS011;54981;50.206;15.978;2023-08-06T11:39:52;6.05;;;5.55;;
68168;SDS011;54981;50.206;15.978;2023-08-06T11:42:23;6.82;;;6.32;;
68168;SDS011;54981;50.206;15.978;2023-08-06T11:44:56;6.22;;;5.75;;
68168;SDS011;54981;50.206;15.978;2023-08-06T11:47:26;7.03;;;6.53;;
68168;SDS011;54981;50.206;15.978;2023-08-06T11:49:59;6.53;;;6.03;;
68168;SDS011;54981;50.206;15.978;2023-08-06T11:52:29;6.43;;;5.93;;
68168;SDS011;54981;50.206;15.978;2023-08-06T11:55:03;5.72;;;5.32;;
68168;SDS011;54981;50.206;15.978;2023-08-06T11:57:38;7.03;;;6.43;;
68168;SDS011;54981;50.206;15.978;2023-08-06T12:00:10;7.28;;;6.30;;
68168;SDS011;54981;50.206;15.978;2023-08-06T12:02:43;6.90;;;6.30;;
68168;SDS011;54981;50.206;15.978;2023-08-06T12:05:15;7.60;;;7.00;;
68168;SDS011;54981;50.206;15.978;2023-08-06T12:07:47;6.82;;;6.32;;
68168;SDS011;54981;50.206;15.978;2023-08-06T12:10:19;7.40;;;6.80;;
68168;SDS011;54981;50.206;15.978;2023-08-06T12:12:50;8.10;;;7.40;;
68168;SDS011;54981;50.206;15.978;2023-08-06T12:15:21;6.85;;;6.25;;
68168;SDS011;54981;50.206;15.978;2023-08-06T12:17:53;7.55;;;6.85;;
68168;SDS011;54981;50.206;15.978;2023-08-06T12:20:23;8.05;;;7.25;;
68168;SDS011;54981;50.206;15.978;2023-08-06T12:22:54;8.10;;;7.47;;
68168;SDS011;54981;50.206;15.978;2023-08-06T12:25:24;7.18;;;6.50;;
68168;SDS011;54981;50.206;15.978;2023-08-06T12:27:54;8.25;;;7.55;;
68168;SDS011;54981;50.206;15.978;2023-08-06T12:30:25;8.02;;;7.03;;
68168;SDS011;54981;50.206;15.978;2023-08-06T12:32:55;8.35;;;7.65;;
68168;SDS011;54981;50.206;15.978;2023-08-06T12:35:26;8.63;;;7.82;;
68168;SDS011;54981;50.206;15.978;2023-08-06T12:37:56;8.95;;;8.25;;
68168;SDS011;54981;50.206;15.978;2023-08-06T12:40:27;7.90;;;7.15;;
68168;SDS011;54981;50.206;15.978;2023-08-06T12:42:57;9.07;;;8.30;;
68168;SDS011;54981;50.206;15.978;2023-08-06T12:45:29;8.18;;;7.38;;
68168;SDS011;54981;50.206;15.978;2023-08-06T12:47:59;8.68;;;7.97;;
68168;SDS011;54981;50.206;15.978;2023-08-06T12:50:30;9.32;;;8.63;;
68168;SDS011;54981;50.206;15.978;2023-08-06T12:53:02;8.40;;;7.70;;
68168;SDS011;54981;50.206;15.978;2023-08-06T12:55:34;9.48;;;8.77;;
68168;SDS011;54981;50.206;15.978;2023-08-06T12:58:05;9.25;;;8.45;;
68168;SDS011;54981;50.206;15.978;2023-08-06T13:00:35;9.30;;;8.48;;
68168;SDS011;54981;50.206;15.978;2023-08-06T13:03:05;9.35;;;8.57;;
68168;SDS011;54981;50.206;15.978;2023-08-06T13:05:36;9.50;;;8.70;;
68168;SDS011;54981;50.206;15.978;2023-08-06T13:08:07;9.50;;;8.70;;
68168;SDS011;54981;50.206;15.978;2023-08-06T13:10:37;9.23;;;8.52;;
68168;SDS011;54981;50.206;15.978;2023-08-06T13:13:07;9.05;;;8.25;;
68168;SDS011;54981;50.206;15.978;2023-08-06T13:15:40;8.93;;;8.10;;
68168;SDS011;54981;50.206;15.978;2023-08-06T13:18:10;9.27;;;8.52;;
68168;SDS011;54981;50.206;15.978;2023-08-06T13:20:40;9.35;;;8.60;;
68168;SDS011;54981;50.206;15.978;2023-08-06T13:23:11;8.93;;;8.23;;
68168;SDS011;54981;50.206;15.978;2023-08-06T13:25:42;9.15;;;8.45;;
68168;SDS011;54981;50.206;15.978;2023-08-06T13:28:12;9.93;;;9.13;;
68168;SDS011;54981;50.206;15.978;2023-08-06T13:30:43;9.85;;;9.05;;
68168;SDS011;54981;50.206;15.978;2023-08-06T13:33:14;9.43;;;8.65;;
68168;SDS011;54981;50.206;15.978;2023-08-06T13:35:44;9.07;;;8.27;;
68168;SDS011;54981;50.206;15.978;2023-08-06T13:38:15;10.05;;;9.25;;
68168;SDS011;54981;50.206;15.978;2023-08-06T13:40:45;9.65;;;8.75;;
68168;SDS011;54981;50.206;15.978;2023-08-06T13:43:16;9.85;;;8.95;;
68168;SDS011;54981;50.206;15.978;2023-08-06T13:45:49;10.07;;;9.10;;
68168;SDS011;54981;50.206;15.978;2023-08-06T13:48:19;10.90;;;9.90;;
68168;SDS011;54981;50.206;15.978;2023-08-06T13:50:49;9.10;;;8.40;;
68168;SDS011;54981;50.206;15.978;2023-08-06T13:53:20;10.50;;;9.60;;
68168;SDS011;54981;50.206;15.978;2023-08-06T13:55:50;10.55;;;9.55;;
68168;SDS011;54981;50.206;15.978;2023-08-06T13:58:20;11.95;;;11.05;;
68168;SDS011;54981;50.206;15.978;2023-08-06T14:00:51;10.25;;;9.43;;
68168;SDS011;54981;50.206;15.978;2023-08-06T14:03:24;10.38;;;9.57;;
68168;SDS011;54981;50.206;15.978;2023-08-06T14:05:54;10.98;;;10.07;;
68168;SDS011;54981;50.206;15.978;2023-08-06T14:08:26;10.35;;;9.55;;
68168;SDS011;54981;50.206;15.978;2023-08-06T14:10:56;10.48;;;9.68;;
68168;SDS011;54981;50.206;15.978;2023-08-06T14:13:27;11.05;;;10.13;;
68168;SDS011;54981;50.206;15.978;2023-08-06T14:15:57;10.07;;;9.25;;
68168;SDS011;54981;50.206;15.978;2023-08-06T14:18:27;9.68;;;8.77;;
68168;SDS011;54981;50.206;15.978;2023-08-06T14:20:58;10.25;;;9.45;;
68168;SDS011;54981;50.206;15.978;2023-08-06T14:23:29;10.45;;;9.55;;
68168;SDS011;54981;50.206;15.978;2023-08-06T14:25:59;10.15;;;9.35;;
68168;SDS011;54981;50.206;15.978;2023-08-06T14:28:29;10.40;;;9.60;;
68168;SDS011;54981;50.206;15.978;2023-08-06T14:31:00;10.27;;;9.48;;
68168;SDS011;54981;50.206;15.978;2023-08-06T14:33:30;10.07;;;9.25;;
68168;SDS011;54981;50.206;15.978;2023-08-06T14:36:01;10.50;;;9.50;;
68168;SDS011;54981;50.206;15.978;2023-08-06T14:38:32;9.45;;;8.63;;
68168;SDS011;54981;50.206;15.978;2023-08-06T14:41:02;9.98;;;9.18;;
68168;SDS011;54981;50.206;15.978;2023-08-06T14:43:32;9.70;;;8.90;;
68168;SDS011;54981;50.206;15.978;2023-08-06T14:46:03;8.57;;;7.88;;
68168;SDS011;54981;50.206;15.978;2023-08-06T14:48:33;9.98;;;9.02;;
68168;SDS011;54981;50.206;15.978;2023-08-06T14:53:26;10.45;;;9.43;;
68168;SDS011;54981;50.206;15.978;2023-08-06T14:55:56;11.40;;;10.32;;
68168;SDS011;54981;50.206;15.978;2023-08-06T14:58:27;9.77;;;8.88;;
68168;SDS011;54981;50.206;15.978;2023-08-06T15:00:57;10.27;;;9.43;;
68168;SDS011;54981;50.206;15.978;2023-08-06T15:03:27;9.75;;;8.95;;